Startpagina
METAR-TAF:

METAR-TAF

Vliegvelden :

Luchthaven Ankara Esenboga

Ankara Esenboğa, Turkije

breedte: 40-07N, lengte: 032-59E, hoogte: 953 m

Actueel weer

Dit bericht is 41 minuten geleden gemaakt, om 11:50 UTC
Wind 12 kt uit het oostnoordoosten
Temperatuur 24°C
Vochtigheid 8%
Druk 1020 hPa
Zicht 10 km of meer
Weinig wolken op 4000 ft

METAR: LTAC 191150Z 07012KT 9999 FEW040 24/M12 Q1020 NOSIG RMK RWY21L 02012KT 350V060 RWY03L 04012KT 010V070 RWY21R 03013KT 360V070

Tijdstip: 15:31 (12:31 UTC)

Verwachting

Dit bericht is 1 uur en het 51 minuten geleden gemaakt, om 10:40 UTC
Verwachting geldig van 19 om 12 UTC tot 20 om 12 UTC
Wind 8 kt uit het oostnoordoosten
Zicht 10 km of meer
Weinig wolken op 4000 ft
Wijzigt naar
van 19 om 13 UTC tot 19 om 15 UTC
Zicht 10 km of meer
geen wolken onder 1500 m en geen cumulonimbus
Wijzigt naar
van 20 om 07 UTC tot 20 om 09 UTC
Verspreide wolken op 4000 ft

TAF: LTAC 191040Z 1912/2012 06008KT 9999 FEW040 BECMG 1913/1915 CAVOK BECMG 2007/2009 SCT040

Waarnemingen en weersverwachtingen van meer dan 4000 vliegvelden (METAR en TAF).

De beschikbare stations zijn de gele en rode punten op de kaart.

Ga met uw muis naar het station om de naam te zien.

Klik dan om waarnemingen en weersverwachtingen te zien.

kaart wijzigen: klik op de groene knoppen met een zwart kruis om in te zoomen, op de groene knop met een streepje om uit te zoomen of op de groene pijlen voor aangrenzende kaarten.


METAR-TAF: